What's new
  • ยินดีต้อนรับทุกท่านเข้าสู่ไทยซีร้อยสามสิบครับ, หากท่านพบปัญหาการใช้งานเว็บไซต์ของเรา
    หรือต้องการเสนอแนะประการใดสามารถโพสแจ้งได้ที่ ฟอรั่ม: Contact us/help info ,ขอบคุณครับ.
    แจ้งข่าวสารการอับเดทฟอรั่ม Thaic-130


    Live support: SKYPIG / Lt.Col.Tirapong Kongsomrit, e-mail: kongsomrit@yahoo.com
    กรุณาปิด โปรแกรมบล๊อกโฆษณา เพราะเราอยู่ได้ด้วยโฆษณาที่ท่านเห็น
    Please close the adblock program. Because we can live with the ads you see

Feb 2013

skypig

Administrator
วันนี้เปลี่ยนมาบิน ZSNB Ninbo
มีโอกาศได้เจอ
ฝนหิมะ SNRA

ZSNB 190100Z 34004MPS 6000 -PLRA FEW007 BKN016 OVC040 02/01 Q1027 NOSIG

TAF ZSNB 181944Z 1900/1924 36006MPS 3500 -SNRA BR SCT008 BKN015 OVC033
BECMG 1911/1912 5000 BR
 


Flag Counter

กรุณาปิด โปรแกรมบล๊อกโฆษณา เพราะเราอยู่ได้ด้วยโฆษณาที่ท่านเห็น
Please close the adblock program. Because we can live with the ads you see
Top